KBKE/BKE METAR and TAF weather

Enter ICAO airport designator
Station Type Date Time Source
KBKE METAR 2018/07/19 06:53 UTC NOAA

KBKE 190653Z AUTO 22003KT 9SM CLR 18/05 A3011 RMK AO2 SLP167 T01780050


Station Type Date Time Source
KBKE Decoded METAR 2018/07/19 06:53 UTC NOAA

BAKER MUNICIPAL AIRPORT, OR, United States (KBKE) 44-50N 117-49W 1024M
Jul 19, 2018 - 02:53 AM EDT / 2018.07.19 0653 UTC
Wind: from the SW (220 degrees) at 3 MPH (3 KT):0
Visibility: 9 mile(s):0
Sky conditions: clear
Temperature: 64.0 F (17.8 C)
Dew Point: 41.0 F (5.0 C)
Relative Humidity: 42%
Pressure (altimeter): 30.11 in. Hg (1019 hPa)
ob: KBKE 190653Z AUTO 22003KT 9SM CLR 18/05 A3011 RMK AO2 SLP167 T01780050
cycle: 7

Station Type Date Time Source
KBKE TAF 2018/07/19 06:22 UTC NOAA

TAF KBKE 190520Z 1906/2006 31008KT P6SM SKC


Example: see airport list